METAR

Diskussion i 'Café Flygfyren' startad av Thord, 28 Augusti 2018.

Bevakare:
Den här tråden bevakas av 6 medlemmar.
  1. Thord

    Thord Aktiv medlem

    Hej alla, jag vet inte riktigt hur jag ska formulera den här funderingen jag har så den blir begriplig, men jag gör ett försök.
    Det jag undrar vad är det som krävs för att "publicera" en METAR? Av vad jag har kunnat se så är det bara instrumentflygplatser som har METAR. Men med tanke på att det finns autogenererade METAR så blir följdfrågan om det ska vara en viss utrustning för att få generera en METAR? Eller vad är det som styr det där?
     
  2. Larscho

    Larscho Moderator

    Ja, det finns utrustningskrav såklart. Det du ser på en AUTO ska ju kunna mätas. Sedan för att den inte längre ska vara AUTO så krävs att en person med meteorologisk utbildning(ej meteorolog) finns på plats för att till exempel se om den är rimlig och att kika efter CB och annat som den utrustning inte riktigt kan se.
     
  3. Per D

    Per D Medlem

    Auto funkar nog bra i allmänhet men igår ställdes tydligen utrustningen på prov...

    C6889856-B4A2-4452-88A1-960E04434106.jpeg
     
    • Håller med Håller med x 2
    • Gillar Gillar x 1
  4. Fredan

    Fredan Medlem

    Byigt värre hehe
     
  5. Anders Lidén

    Anders Lidén Aktiv medlem

    Vi kan väl använda tråden för exempel på METAR (och kanske även TAF) som är lite extra intressanta och även kan användas i utbildningssyfte för att visa vad som kan hända.
    Jag börjar med dagens väder i Sälen:
    ESKS 221150Z 28009KT 250V310 9999 FEW005 OVC048 01/01 Q0969
    ESKS 221120Z 31026G39KT 9999 -RASN SCT005 BKN012 01/00 Q0967
    ESKS 221050Z 16008KT 130V200 9999 -RA SCT006 BKN012 01/01 Q0967
    ESKS 221020Z 14010KT 2500 -SN VV010 00/00 Q0967

    Tänk att ligga på medvindslinjen till bana 15 sådär vid kl 1105Z...

    Och en gammal som vi väl har sett ibland:

    ESSD 100950Z AUTO 09005KT 9999 FEW068/// M07/M08 Q0982
    ESSD 101020Z AUTO 14009KT 9999 BKN006/// BKN008/// OVC066/// M07/M07 Q0980
     
    • Gillar Gillar x 2
  6. Axelaxe

    Axelaxe Ny medlem

    Jag har titta lite på om det finns någon hobbyutrustning som skulle kunna ge en bra egen METAR, just nu kör vi HOLFOY på vårt lilla fält, vilket är helt ok, går dessutom på GSM och solceller, så mininalt med underhåll. Kan t.om gör molnbas men inte riktigt fått igång detta dock. Letar vidare efter mer flygrelaterad utrustning.
     
    • Gillar Gillar x 1
Laddar...

Dela sidan